Time;durP1;ratioP1;P1;durP2;ratioP2;P2;SDS_P1;SDS_P2;PMS_P1;PMS_P2;Temp;Humidity;BMP_temperature;BMP_pressure;BME280_temperature;BME280_humidity;BME280_pressure;Samples;Min_cycle;Max_cycle;Signal;HPM_P1;HPM_P2
2024/03/06 00:02:18;;;;;;;23.83;12.38;;;;;;;;;;6218333;28;20514;-77
2024/03/06 00:05:21;;;;;;;19.08;10.48;;;;;;;;;;6244601;28;20135;-77
2024/03/06 00:08:26;;;;;;;18.90;11.30;;;;;;;;;;6275341;28;20569;-77
2024/03/06 00:11:28;;;;;;;27.25;14.93;;;;;;;;;;6246839;28;20049;-77
2024/03/06 00:14:32;;;;;;;23.15;13.35;;;;;;;;;;6255450;28;20073;-77
2024/03/06 00:17:35;;;;;;;20.05;11.40;;;;;;;;;;6274690;28;20517;-77
2024/03/06 00:20:42;;;;;;;19.33;11.88;;;;;;;;;;6252524;28;20041;-76
2024/03/06 00:23:45;;;;;;;18.83;10.07;;;;;;;;;;6251201;28;20052;-76
2024/03/06 00:26:48;;;;;;;19.35;11.27;;;;;;;;;;6286461;28;20098;-77
2024/03/06 00:29:50;;;;;;;21.80;11.75;;;;;;;;;;6259321;28;20545;-77
2024/03/06 00:32:53;;;;;;;17.92;10.10;;;;;;;;;;6250520;28;20048;-77
2024/03/06 00:35:55;;;;;;;17.08;9.82;;;;;;;;;;6252786;28;20538;-78
2024/03/06 00:39:04;;;;;;;18.35;10.18;;;;;;;;;;6264331;28;20049;-76
2024/03/06 00:42:13;;;;;;;17.95;10.25;;;;;;;;;;6256670;28;20044;-76
2024/03/06 00:45:16;;;;;;;21.77;10.77;;;;;;;;;;6272672;28;20045;-76
2024/03/06 00:48:19;;;;;;;19.58;10.95;;;;;;;;;;6257162;28;20049;-77
2024/03/06 00:51:22;;;;;;;18.02;10.98;;;;;;;;;;6272078;28;20162;-77
2024/03/06 00:54:41;;;;;;;20.00;11.60;;;;;;;;;;6257976;28;20805;-77
2024/03/06 00:57:44;;;;;;;19.83;11.23;;;;;;;;;;6260219;28;20427;-77
2024/03/06 01:00:46;;;;;;;19.30;10.57;;;;;;;;;;6253266;28;20053;-77
2024/03/06 01:03:49;;;;;;;18.85;10.40;;;;;;;;;;6266477;28;20053;-76
2024/03/06 01:06:51;;;;;;;16.38;10.55;;;;;;;;;;6275217;28;20052;-75
2024/03/06 01:09:53;;;;;;;14.85;10.65;;;;;;;;;;6243008;28;20560;-76
2024/03/06 01:12:57;;;;;;;16.17;10.35;;;;;;;;;;6247569;28;20041;-77
2024/03/06 01:15:59;;;;;;;17.48;10.32;;;;;;;;;;6243934;28;20057;-76
2024/03/06 01:19:04;;;;;;;14.15;8.95;;;;;;;;;;6268441;28;20549;-76
2024/03/06 01:22:13;;;;;;;;;;;;;;;;;;6263861;28;20135;-76
2024/03/06 01:25:15;;;;;;;18.88;8.70;;;;;;;;;;6263088;28;20078;-77
2024/03/06 01:28:19;;;;;;;21.42;11.57;;;;;;;;;;6271875;28;20064;-77
2024/03/06 01:31:22;;;;;;;18.45;11.95;;;;;;;;;;6266464;28;20808;-76
2024/03/06 01:34:26;;;;;;;20.25;11.70;;;;;;;;;;6264762;28;20049;-76
2024/03/06 01:37:28;;;;;;;18.90;9.90;;;;;;;;;;6251285;28;20152;-77
2024/03/06 01:40:31;;;;;;;17.10;8.88;;;;;;;;;;6264943;28;20446;-76
2024/03/06 01:43:38;;;;;;;23.65;11.95;;;;;;;;;;6227765;28;20059;-76
2024/03/06 01:46:40;;;;;;;22.83;13.27;;;;;;;;;;6251271;28;20037;-76
2024/03/06 01:49:43;;;;;;;22.13;11.68;;;;;;;;;;6244535;28;20045;-76
2024/03/06 01:52:46;;;;;;;19.52;9.40;;;;;;;;;;6268129;28;20123;-76
2024/03/06 01:55:49;;;;;;;15.23;9.13;;;;;;;;;;6245296;28;20041;-75
2024/03/06 01:58:51;;;;;;;18.50;9.30;;;;;;;;;;6253335;28;20057;-76
2024/03/06 02:01:55;;;;;;;19.15;11.60;;;;;;;;;;6261143;28;20068;-76
2024/03/06 02:04:59;;;;;;;16.42;9.75;;;;;;;;;;6279654;28;20174;-77
2024/03/06 02:08:03;;;;;;;14.68;8.60;;;;;;;;;;6240893;28;20080;-77
2024/03/06 02:11:06;;;;;;;15.63;9.38;;;;;;;;;;6261425;28;20086;-77
2024/03/06 02:14:10;;;;;;;20.08;12.48;;;;;;;;;;6265340;28;20044;-77
2024/03/06 02:17:12;;;;;;;24.20;10.43;;;;;;;;;;6247663;28;20526;-76
2024/03/06 02:20:15;;;;;;;23.75;10.82;;;;;;;;;;6268628;28;20128;-76
2024/03/06 02:23:20;;;;;;;19.13;10.95;;;;;;;;;;6250388;28;20052;-76
2024/03/06 02:26:23;;;;;;;19.00;11.57;;;;;;;;;;6228818;28;20438;-76
2024/03/06 02:29:25;;;;;;;17.20;11.15;;;;;;;;;;6253894;28;20077;-76
2024/03/06 02:32:27;;;;;;;22.77;11.45;;;;;;;;;;6230805;28;20490;-75
2024/03/06 02:35:30;;;;;;;19.10;10.70;;;;;;;;;;6267329;28;20194;-75
2024/03/06 02:38:32;;;;;;;18.20;13.07;;;;;;;;;;6240607;28;20060;-76
2024/03/06 02:41:36;;;;;;;17.42;10.10;;;;;;;;;;6252545;28;20068;-76
2024/03/06 02:44:38;;;;;;;16.33;10.10;;;;;;;;;;6256269;28;20122;-76
2024/03/06 02:47:40;;;;;;;24.25;11.32;;;;;;;;;;6251301;28;20762;-76
2024/03/06 02:50:43;;;;;;;22.05;11.00;;;;;;;;;;6216572;28;20052;-77
2024/03/06 02:53:45;;;;;;;17.52;10.60;;;;;;;;;;6239815;28;20545;-77
2024/03/06 02:56:47;;;;;;;17.35;10.68;;;;;;;;;;6253104;28;20766;-76
2024/03/06 02:59:50;;;;;;;19.08;9.85;;;;;;;;;;6225377;28;20136;-77
2024/03/06 03:02:52;;;;;;;18.25;10.23;;;;;;;;;;6210144;28;20126;-76
2024/03/06 03:05:54;;;;;;;23.38;12.93;;;;;;;;;;6240391;28;20864;-76
2024/03/06 03:08:56;;;;;;;19.73;10.25;;;;;;;;;;6250223;28;20123;-76
2024/03/06 03:11:59;;;;;;;19.15;10.02;;;;;;;;;;6221518;28;20053;-76
2024/03/06 03:15:01;;;;;;;24.35;13.80;;;;;;;;;;6225459;28;20045;-75
2024/03/06 03:18:04;;;;;;;19.02;10.02;;;;;;;;;;6256133;28;20041;-76
2024/03/06 03:21:08;;;;;;;23.33;11.38;;;;;;;;;;6218191;28;20053;-76
2024/03/06 03:24:12;;;;;;;19.48;12.30;;;;;;;;;;6223532;28;20514;-75
2024/03/06 03:27:16;;;;;;;20.15;11.70;;;;;;;;;;6247270;28;20109;-76
2024/03/06 03:30:21;;;;;;;21.33;10.70;;;;;;;;;;6250859;28;20044;-76
2024/03/06 03:33:24;;;;;;;17.05;10.52;;;;;;;;;;6222881;28;20053;-76
2024/03/06 03:36:26;;;;;;;18.33;10.52;;;;;;;;;;6256742;28;20438;-77
2024/03/06 03:39:28;;;;;;;20.70;12.25;;;;;;;;;;6253951;28;20049;-76
2024/03/06 03:42:30;;;;;;;20.98;11.25;;;;;;;;;;6240408;28;20179;-76
2024/03/06 03:45:33;;;;;;;22.80;12.32;;;;;;;;;;6227536;28;20053;-76
2024/03/06 03:48:37;;;;;;;21.02;14.30;;;;;;;;;;6252938;28;20105;-76
2024/03/06 03:51:42;;;;;;;29.38;14.68;;;;;;;;;;6238979;28;20053;-76
2024/03/06 03:54:44;;;;;;;24.90;13.65;;;;;;;;;;6235129;28;20052;-76
2024/03/06 03:57:46;;;;;;;19.63;12.07;;;;;;;;;;6239866;28;20182;-77
2024/03/06 04:00:52;;;;;;;20.67;12.48;;;;;;;;;;6220676;28;20049;-76
2024/03/06 04:03:54;;;;;;;21.00;10.75;;;;;;;;;;6250823;28;20053;-78
2024/03/06 04:06:59;;;;;;;19.02;11.13;;;;;;;;;;6225860;28;20060;-76
2024/03/06 04:10:02;;;;;;;21.70;9.77;;;;;;;;;;6235362;28;20301;-76
2024/03/06 04:13:04;;;;;;;20.05;10.88;;;;;;;;;;6224448;28;20500;-76
2024/03/06 04:16:07;;;;;;;18.38;11.48;;;;;;;;;;6218484;28;20045;-76
2024/03/06 04:19:09;;;;;;;22.52;11.50;;;;;;;;;;6248323;28;20500;-76
2024/03/06 04:22:11;;;;;;;22.58;13.23;;;;;;;;;;6234884;28;20053;-76
2024/03/06 04:25:14;;;;;;;25.25;11.50;;;;;;;;;;6232851;28;20510;-76
2024/03/06 04:28:16;;;;;;;21.88;12.20;;;;;;;;;;6202051;28;20049;-77
2024/03/06 04:31:19;;;;;;;22.25;12.20;;;;;;;;;;6237112;28;20045;-77
2024/03/06 04:34:23;;;;;;;24.42;11.23;;;;;;;;;;6245710;28;20554;-76
2024/03/06 04:37:26;;;;;;;18.67;10.65;;;;;;;;;;6232300;28;20056;-76
2024/03/06 04:40:28;;;;;;;20.40;11.18;;;;;;;;;;6238131;28;20562;-76
2024/03/06 04:43:32;;;;;;;39.15;19.23;;;;;;;;;;6243699;28;20052;-76
2024/03/06 04:46:34;;;;;;;27.33;14.55;;;;;;;;;;6236674;28;20090;-76
2024/03/06 04:49:36;;;;;;;22.35;11.63;;;;;;;;;;6259011;28;20079;-76
2024/03/06 04:52:39;;;;;;;24.85;11.73;;;;;;;;;;6250158;28;20055;-76
2024/03/06 04:55:41;;;;;;;19.48;10.93;;;;;;;;;;6240953;28;20119;-76
2024/03/06 04:58:44;;;;;;;22.58;12.77;;;;;;;;;;6254788;28;20091;-77
2024/03/06 05:01:47;;;;;;;29.23;14.82;;;;;;;;;;6253953;28;20434;-77
2024/03/06 05:04:50;;;;;;;36.75;17.70;;;;;;;;;;6240195;28;20628;-76
2024/03/06 05:08:10;;;;;;;26.58;16.23;;;;;;;;;;6256969;28;20406;-76
2024/03/06 05:11:31;;;;;;;26.95;12.63;;;;;;;;;;6236941;28;20048;-77
2024/03/06 05:14:51;;;;;;;31.35;15.45;;;;;;;;;;6262574;28;20451;-76
2024/03/06 05:18:11;;;;;;;28.05;13.68;;;;;;;;;;6244693;28;20086;-76
2024/03/06 05:21:31;;;;;;;26.70;11.48;;;;;;;;;;6269439;28;20498;-76
2024/03/06 05:24:50;;;;;;;31.55;12.77;;;;;;;;;;6229507;28;20102;-77
2024/03/06 05:28:10;;;;;;;26.70;11.88;;;;;;;;;;6261714;28;20040;-77
2024/03/06 05:31:30;;;;;;;26.17;14.00;;;;;;;;;;6248597;28;20040;-77
2024/03/06 05:34:51;;;;;;;26.88;12.65;;;;;;;;;;6255423;28;20039;-79
2024/03/06 05:38:13;;;;;;;31.45;14.82;;;;;;;;;;6245109;28;20051;-79
2024/03/06 05:41:34;;;;;;;31.80;15.38;;;;;;;;;;6227973;28;20670;-79
2024/03/06 05:44:55;;;;;;;39.40;17.20;;;;;;;;;;6273298;28;20041;-79
2024/03/06 05:48:14;;;;;;;47.92;20.90;;;;;;;;;;6258342;28;20044;-80
2024/03/06 05:51:33;;;;;;;45.28;22.15;;;;;;;;;;6255173;28;20029;-76
2024/03/06 05:54:53;;;;;;;45.33;18.63;;;;;;;;;;6236890;28;20036;-78
2024/03/06 05:58:13;;;;;;;37.72;17.00;;;;;;;;;;6237585;28;20033;-78
2024/03/06 06:01:20;;;;;;;39.50;18.27;;;;;;;;;;6270671;28;20049;-76
2024/03/06 06:04:23;;;;;;;42.40;19.05;;;;;;;;;;6261755;28;20135;-78
2024/03/06 06:07:25;;;;;;;32.40;12.38;;;;;;;;;;6270035;28;20144;-77
2024/03/06 06:10:28;;;;;;;32.90;14.80;;;;;;;;;;6261741;28;20549;-77
2024/03/06 06:13:30;;;;;;;42.78;12.75;;;;;;;;;;6233568;28;20045;-77
2024/03/06 06:16:40;;;;;;;32.35;15.60;;;;;;;;;;6226643;28;20045;-77
2024/03/06 06:19:44;;;;;;;33.85;17.98;;;;;;;;;;6218488;28;20048;-77
2024/03/06 06:22:47;;;;;;;39.17;17.83;;;;;;;;;;6248611;28;20794;-77
2024/03/06 06:25:49;;;;;;;32.53;13.70;;;;;;;;;;6236450;28;20442;-77
2024/03/06 06:28:54;;;;;;;33.00;15.60;;;;;;;;;;6237476;28;20593;-78
2024/03/06 06:31:57;;;;;;;33.95;14.75;;;;;;;;;;6268810;28;20053;-78
2024/03/06 06:35:09;;;;;;;28.17;13.35;;;;;;;;;;6245048;28;20099;-77
2024/03/06 06:38:11;;;;;;;31.48;14.75;;;;;;;;;;6214233;28;20059;-77
2024/03/06 06:41:15;;;;;;;31.60;13.65;;;;;;;;;;6265709;28;20063;-77
2024/03/06 06:44:18;;;;;;;29.35;13.90;;;;;;;;;;6240399;28;20045;-77
2024/03/06 06:47:20;;;;;;;27.80;13.68;;;;;;;;;;6279474;28;20080;-76
2024/03/06 06:50:27;;;;;;;27.05;12.90;;;;;;;;;;6257866;28;20816;-77
2024/03/06 06:53:30;;;;;;;33.30;15.70;;;;;;;;;;6271196;28;20186;-77
2024/03/06 06:56:33;;;;;;;32.88;14.95;;;;;;;;;;6240686;28;20048;-77
2024/03/06 06:59:35;;;;;;;36.53;14.52;;;;;;;;;;6258301;28;20057;-77
2024/03/06 07:02:39;;;;;;;41.92;18.15;;;;;;;;;;6239209;28;20147;-77
2024/03/06 07:05:43;;;;;;;38.55;16.17;;;;;;;;;;6253030;28;20095;-77
2024/03/06 07:08:45;;;;;;;43.53;21.92;;;;;;;;;;6265597;28;20110;-76
2024/03/06 07:11:48;;;;;;;31.98;16.45;;;;;;;;;;6260725;28;20044;-77
2024/03/06 07:14:50;;;;;;;48.10;23.27;;;;;;;;;;6268534;28;20040;-77
2024/03/06 07:17:52;;;;;;;44.65;20.13;;;;;;;;;;6251271;28;20048;-78
2024/03/06 07:20:55;;;;;;;37.47;18.15;;;;;;;;;;6268981;28;20040;-77
2024/03/06 07:23:57;;;;;;;45.70;19.05;;;;;;;;;;6250566;28;20051;-76
2024/03/06 07:27:03;;;;;;;42.45;18.52;;;;;;;;;;6249203;28;20068;-76
2024/03/06 07:30:10;;;;;;;31.77;15.45;;;;;;;;;;6206663;28;20338;-77
2024/03/06 07:33:15;;;;;;;33.33;17.08;;;;;;;;;;6244170;28;20045;-77
2024/03/06 07:36:19;;;;;;;26.58;13.23;;;;;;;;;;6257516;28;20040;-76
2024/03/06 07:39:21;;;;;;;30.05;13.95;;;;;;;;;;6235911;28;20150;-77
2024/03/06 07:42:24;;;;;;;26.77;16.00;;;;;;;;;;6219971;28;20048;-77
2024/03/06 07:45:27;;;;;;;31.52;15.77;;;;;;;;;;6246982;28;20049;-76
2024/03/06 07:48:29;;;;;;;30.33;16.17;;;;;;;;;;6246258;28;20064;-77
2024/03/06 07:51:32;;;;;;;29.85;15.20;;;;;;;;;;6267720;28;20761;-76
2024/03/06 07:54:35;;;;;;;26.45;13.50;;;;;;;;;;6234819;28;20110;-77
2024/03/06 07:57:38;;;;;;;24.75;10.82;;;;;;;;;;6260108;28;20068;-77
2024/03/06 08:00:40;;;;;;;25.20;12.15;;;;;;;;;;6266735;28;20052;-76
2024/03/06 08:03:43;;;;;;;32.28;16.50;;;;;;;;;;6234909;28;20538;-77
2024/03/06 08:06:46;;;;;;;18.77;10.15;;;;;;;;;;6257003;28;20045;-76
2024/03/06 08:09:48;;;;;;;29.88;15.15;;;;;;;;;;6248306;28;20052;-77
2024/03/06 08:12:51;;;;;;;33.30;15.48;;;;;;;;;;6245456;28;20518;-76
2024/03/06 08:15:54;;;;;;;32.50;15.48;;;;;;;;;;6266528;28;20037;-75
2024/03/06 08:18:59;;;;;;;21.67;9.77;;;;;;;;;;6236153;28;20059;-76
2024/03/06 08:22:02;;;;;;;25.95;14.30;;;;;;;;;;6264355;28;20118;-77
2024/03/06 08:25:09;;;;;;;28.35;14.35;;;;;;;;;;6254218;28;20601;-78
2024/03/06 08:28:11;;;;;;;26.98;16.73;;;;;;;;;;6250261;28;20052;-76
2024/03/06 08:31:13;;;;;;;24.42;13.90;;;;;;;;;;6239118;28;20045;-77
2024/03/06 08:34:16;;;;;;;28.23;14.38;;;;;;;;;;6240148;28;20044;-76
2024/03/06 08:37:19;;;;;;;26.67;12.65;;;;;;;;;;6267831;28;20817;-76
2024/03/06 08:40:23;;;;;;;26.67;13.40;;;;;;;;;;6254928;28;20037;-76
2024/03/06 08:43:26;;;;;;;22.80;12.63;;;;;;;;;;6253247;28;20040;-76
2024/03/06 08:46:28;;;;;;;28.92;13.50;;;;;;;;;;6259779;28;20775;-77
2024/03/06 08:49:32;;;;;;;27.25;13.25;;;;;;;;;;6253886;28;20206;-78
2024/03/06 08:52:34;;;;;;;28.33;14.27;;;;;;;;;;6262792;28;20045;-77
2024/03/06 08:55:38;;;;;;;21.80;13.30;;;;;;;;;;6234492;28;20041;-76
2024/03/06 08:58:40;;;;;;;30.08;12.68;;;;;;;;;;6267256;28;20044;-74
2024/03/06 09:01:42;;;;;;;14.80;8.43;;;;;;;;;;6255647;28;20747;-78
2024/03/06 09:04:45;;;;;;;27.45;13.65;;;;;;;;;;6259414;28;20055;-77
2024/03/06 09:07:47;;;;;;;25.00;13.57;;;;;;;;;;6245458;28;20086;-76
2024/03/06 09:10:49;;;;;;;24.75;12.05;;;;;;;;;;6256060;28;20041;-77
2024/03/06 09:13:52;;;;;;;26.00;12.50;;;;;;;;;;6244228;28;20514;-76
2024/03/06 09:16:54;;;;;;;28.35;12.77;;;;;;;;;;6242445;28;20045;-77
2024/03/06 09:19:57;;;;;;;25.65;13.13;;;;;;;;;;6269042;28;20329;-76
2024/03/06 09:23:11;;;;;;;22.33;11.05;;;;;;;;;;6273744;28;20045;-76
2024/03/06 09:26:13;;;;;;;13.50;6.82;;;;;;;;;;6258296;28;20048;-77
2024/03/06 09:29:16;;;;;;;24.20;12.32;;;;;;;;;;6256420;28;20106;-77
2024/03/06 09:32:19;;;;;;;21.30;12.35;;;;;;;;;;6240537;28;20519;-78
2024/03/06 09:35:23;;;;;;;21.02;11.48;;;;;;;;;;6253383;28;20041;-78
2024/03/06 09:38:25;;;;;;;20.55;10.00;;;;;;;;;;6234015;28;20072;-78
2024/03/06 09:41:28;;;;;;;18.85;9.27;;;;;;;;;;6237317;28;20059;-77
2024/03/06 09:44:31;;;;;;;22.08;10.18;;;;;;;;;;6267775;28;20052;-76
2024/03/06 09:47:35;;;;;;;19.38;8.82;;;;;;;;;;6234883;28;20146;-76
2024/03/06 09:50:41;;;;;;;16.15;8.40;;;;;;;;;;6204056;28;20056;-76
2024/03/06 09:53:43;;;;;;;18.63;8.32;;;;;;;;;;6242020;28;20049;-76
2024/03/06 09:56:47;;;;;;;16.90;8.38;;;;;;;;;;6236922;28;20052;-76
2024/03/06 09:59:51;;;;;;;15.23;7.00;;;;;;;;;;6245527;28;20141;-76
2024/03/06 10:02:58;;;;;;;18.42;8.77;;;;;;;;;;6220230;28;20040;-75
2024/03/06 10:06:00;;;;;;;17.02;7.80;;;;;;;;;;6206234;28;20722;-76
2024/03/06 10:09:10;;;;;;;15.63;7.07;;;;;;;;;;6238107;28;20049;-76
2024/03/06 10:12:12;;;;;;;10.50;6.68;;;;;;;;;;6244203;28;20045;-76
2024/03/06 10:15:16;;;;;;;13.75;6.57;;;;;;;;;;6232187;28;20597;-76
2024/03/06 10:18:19;;;;;;;13.95;7.47;;;;;;;;;;6233458;28;20049;-76
2024/03/06 10:21:31;;;;;;;13.18;7.22;;;;;;;;;;6254364;28;20060;-76
2024/03/06 10:24:34;;;;;;;14.45;7.07;;;;;;;;;;6222617;28;20136;-76
2024/03/06 10:27:36;;;;;;;16.55;7.95;;;;;;;;;;6252735;28;20056;-76
2024/03/06 10:30:44;;;;;;;17.55;9.20;;;;;;;;;;6213959;28;20048;-76
2024/03/06 10:33:46;;;;;;;16.77;8.60;;;;;;;;;;6222885;28;21072;-76
2024/03/06 10:36:57;;;;;;;17.55;8.65;;;;;;;;;;6220119;28;20049;-76
2024/03/06 10:40:05;;;;;;;14.75;8.15;;;;;;;;;;6238583;28;20045;-77
2024/03/06 10:43:09;;;;;;;15.27;8.27;;;;;;;;;;6246591;28;20056;-76
2024/03/06 10:46:12;;;;;;;13.35;7.15;;;;;;;;;;6247184;28;20120;-76
2024/03/06 10:49:15;;;;;;;14.07;7.28;;;;;;;;;;6219701;28;20061;-77
2024/03/06 10:52:18;;;;;;;12.32;7.53;;;;;;;;;;6233812;28;20049;-76
2024/03/06 10:55:21;;;;;;;14.52;6.65;;;;;;;;;;6206409;28;20037;-76
2024/03/06 10:58:25;;;;;;;15.43;7.97;;;;;;;;;;6244012;28;20053;-77
2024/03/06 11:01:28;;;;;;;20.13;7.32;;;;;;;;;;6213031;28;20050;-76
2024/03/06 11:04:34;;;;;;;11.52;6.97;;;;;;;;;;6228842;28;20802;-77
2024/03/06 11:07:37;;;;;;;11.88;6.00;;;;;;;;;;6241406;28;20052;-77
2024/03/06 11:10:41;;;;;;;16.25;6.93;;;;;;;;;;6230095;28;20063;-76
2024/03/06 11:13:43;;;;;;;11.27;5.82;;;;;;;;;;6245561;28;20068;-77
2024/03/06 11:16:59;;;;;;;9.63;4.70;;;;;;;;;;6238489;28;20518;-76
2024/03/06 11:20:09;;;;;;;10.02;6.70;;;;;;;;;;6246852;28;20053;-77
2024/03/06 11:23:11;;;;;;;9.63;5.43;;;;;;;;;;6240685;28;20107;-77
2024/03/06 11:26:16;;;;;;;14.95;5.85;;;;;;;;;;6247395;28;20046;-79
2024/03/06 11:29:20;;;;;;;11.18;5.72;;;;;;;;;;6239580;28;20057;-76
2024/03/06 11:32:24;;;;;;;9.10;6.03;;;;;;;;;;6240179;28;20545;-76
2024/03/06 11:35:29;;;;;;;12.77;5.68;;;;;;;;;;6242013;28;20044;-77
2024/03/06 11:38:31;;;;;;;12.40;6.13;;;;;;;;;;6247329;28;20087;-76
2024/03/06 11:41:43;;;;;;;12.88;5.55;;;;;;;;;;6252674;28;20049;-76
2024/03/06 11:44:58;;;;;;;9.55;4.82;;;;;;;;;;6269899;28;20049;-76
2024/03/06 11:48:02;;;;;;;9.43;4.88;;;;;;;;;;6258554;28;20045;-77
2024/03/06 11:51:06;;;;;;;8.57;4.88;;;;;;;;;;6239532;28;20049;-77
2024/03/06 11:54:10;;;;;;;12.25;5.78;;;;;;;;;;6267667;28;20041;-77
2024/03/06 11:57:16;;;;;;;10.13;4.82;;;;;;;;;;6225543;28;20045;-77
2024/03/06 12:00:18;;;;;;;11.80;6.20;;;;;;;;;;6236320;28;20064;-76
2024/03/06 12:03:25;;;;;;;12.23;5.18;;;;;;;;;;6251150;28;20094;-78
2024/03/06 12:06:28;;;;;;;8.88;4.63;;;;;;;;;;6249276;28;20049;-76
2024/03/06 12:09:33;;;;;;;6.85;3.53;;;;;;;;;;6268338;28;20060;-77
2024/03/06 12:12:44;;;;;;;5.57;3.80;;;;;;;;;;6251442;28;20056;-76
2024/03/06 12:15:47;;;;;;;4.72;3.70;;;;;;;;;;6223351;28;20132;-77
2024/03/06 12:18:59;;;;;;;6.15;3.40;;;;;;;;;;6269423;28;20556;-77
2024/03/06 12:22:06;;;;;;;5.75;3.15;;;;;;;;;;6242304;28;20048;-77
2024/03/06 12:25:09;;;;;;;9.05;4.43;;;;;;;;;;6247761;28;20037;-77
2024/03/06 12:28:12;;;;;;;5.95;2.53;;;;;;;;;;6245512;28;20045;-77
2024/03/06 12:31:14;;;;;;;6.80;3.00;;;;;;;;;;6262979;28;20083;-77
2024/03/06 12:34:17;;;;;;;6.70;3.95;;;;;;;;;;6266412;28;20074;-76
2024/03/06 12:37:19;;;;;;;7.57;4.22;;;;;;;;;;6250824;28;20048;-77
2024/03/06 12:40:22;;;;;;;10.50;5.25;;;;;;;;;;6244948;28;20048;-77
2024/03/06 12:43:28;;;;;;;8.68;4.32;;;;;;;;;;6227742;28;20057;-76
2024/03/06 12:46:31;;;;;;;6.78;4.03;;;;;;;;;;6212242;28;20168;-76
2024/03/06 12:49:33;;;;;;;5.93;3.70;;;;;;;;;;6202613;28;20322;-75
2024/03/06 12:52:37;;;;;;;7.93;3.97;;;;;;;;;;6222964;28;20045;-77
2024/03/06 12:55:43;;;;;;;6.20;4.22;;;;;;;;;;6224980;28;20045;-78
2024/03/06 12:58:46;;;;;;;5.38;3.30;;;;;;;;;;6219617;28;20079;-78
2024/03/06 13:01:48;;;;;;;4.90;2.83;;;;;;;;;;6228186;28;20771;-77
2024/03/06 13:04:51;;;;;;;6.38;2.75;;;;;;;;;;6204245;28;20844;-78
2024/03/06 13:07:53;;;;;;;6.40;2.05;;;;;;;;;;6208644;28;20053;-78
2024/03/06 13:10:56;;;;;;;5.20;3.67;;;;;;;;;;6207733;28;20135;-78
2024/03/06 13:14:00;;;;;;;6.30;3.50;;;;;;;;;;6221764;28;20118;-77
2024/03/06 13:17:03;;;;;;;5.28;2.42;;;;;;;;;;6212907;28;20041;-78
2024/03/06 13:20:11;;;;;;;6.28;2.72;;;;;;;;;;6205254;28;20052;-77
2024/03/06 13:23:14;;;;;;;7.05;3.60;;;;;;;;;;6237971;28;20077;-78
2024/03/06 13:26:17;;;;;;;7.40;2.65;;;;;;;;;;6224375;28;20793;-78
2024/03/06 13:29:20;;;;;;;5.97;3.53;;;;;;;;;;6227013;28;20053;-78
2024/03/06 13:32:22;;;;;;;6.25;3.35;;;;;;;;;;6248920;28;20750;-78
2024/03/06 13:35:25;;;;;;;6.55;4.75;;;;;;;;;;6230161;28;20118;-78
2024/03/06 13:38:28;;;;;;;8.13;3.45;;;;;;;;;;6202900;28;20059;-78
2024/03/06 13:41:30;;;;;;;6.50;4.10;;;;;;;;;;6269642;28;20052;-78
2024/03/06 13:44:32;;;;;;;5.63;2.88;;;;;;;;;;6244170;28;20127;-77
2024/03/06 13:47:36;;;;;;;7.32;3.67;;;;;;;;;;6248146;28;20257;-78
2024/03/06 13:50:38;;;;;;;8.63;4.25;;;;;;;;;;6267149;28;20175;-77
2024/03/06 13:53:40;;;;;;;6.10;4.28;;;;;;;;;;6242051;28;20141;-78
2024/03/06 13:56:44;;;;;;;9.55;3.67;;;;;;;;;;6229237;28;20506;-78
2024/03/06 13:59:48;;;;;;;7.30;4.22;;;;;;;;;;6262175;28;20040;-78
2024/03/06 14:02:50;;;;;;;6.35;3.30;;;;;;;;;;6253644;28;20056;-78
2024/03/06 14:05:52;;;;;;;6.80;3.35;;;;;;;;;;6238036;28;20045;-78
2024/03/06 14:08:55;;;;;;;5.45;3.50;;;;;;;;;;6250415;28;20053;-77
2024/03/06 14:11:58;;;;;;;5.93;3.97;;;;;;;;;;6250724;28;20170;-77
2024/03/06 14:15:01;;;;;;;7.28;3.72;;;;;;;;;;6265122;28;20156;-77
2024/03/06 14:18:04;;;;;;;7.68;4.15;;;;;;;;;;6229066;28;20052;-77
2024/03/06 14:21:07;;;;;;;12.95;4.30;;;;;;;;;;6249558;28;20048;-75
2024/03/06 14:24:10;;;;;;;12.25;4.03;;;;;;;;;;6245233;28;20040;-76
2024/03/06 14:27:12;;;;;;;11.35;4.78;;;;;;;;;;6264506;28;20053;-78
2024/03/06 14:30:19;;;;;;;5.30;2.80;;;;;;;;;;6231949;28;20106;-77
2024/03/06 14:33:22;;;;;;;6.75;3.63;;;;;;;;;;6264369;28;20816;-78
2024/03/06 14:36:25;;;;;;;5.90;3.65;;;;;;;;;;6253518;28;20055;-76
2024/03/06 14:39:27;;;;;;;6.00;3.53;;;;;;;;;;6235091;28;20516;-77
2024/03/06 14:42:29;;;;;;;7.72;4.13;;;;;;;;;;6255734;28;21056;-77
2024/03/06 14:45:32;;;;;;;6.15;4.13;;;;;;;;;;6252831;28;20076;-77
2024/03/06 14:48:34;;;;;;;7.45;3.63;;;;;;;;;;6263539;28;20065;-77
2024/03/06 14:51:36;;;;;;;6.85;3.60;;;;;;;;;;6251729;28;20048;-77
2024/03/06 14:54:42;;;;;;;5.97;4.40;;;;;;;;;;6250596;28;20063;-79
2024/03/06 14:57:46;;;;;;;5.45;3.53;;;;;;;;;;6271501;28;20109;-77
2024/03/06 15:00:48;;;;;;;6.95;3.88;;;;;;;;;;6251808;28;20076;-79
2024/03/06 15:03:54;;;;;;;8.00;4.05;;;;;;;;;;6232904;28;20060;-76
2024/03/06 15:06:57;;;;;;;11.88;6.15;;;;;;;;;;6248754;28;20045;-82
2024/03/06 15:09:59;;;;;;;11.50;4.57;;;;;;;;;;6238796;28;20052;-80
2024/03/06 15:13:01;;;;;;;15.40;5.97;;;;;;;;;;6270555;28;20048;-76
2024/03/06 15:16:04;;;;;;;6.63;3.92;;;;;;;;;;6255104;28;20045;-76
2024/03/06 15:19:06;;;;;;;12.48;8.02;;;;;;;;;;6240889;28;20500;-75
2024/03/06 15:22:10;;;;;;;8.77;4.18;;;;;;;;;;6254456;28;20056;-75
2024/03/06 15:25:13;;;;;;;6.57;3.88;;;;;;;;;;6275327;28;20052;-76
2024/03/06 15:28:15;;;;;;;8.00;4.30;;;;;;;;;;6257708;28;20040;-76
2024/03/06 15:31:17;;;;;;;11.23;4.55;;;;;;;;;;6222663;28;20040;-77
2024/03/06 15:34:22;;;;;;;8.35;5.32;;;;;;;;;;6238612;28;20565;-77
2024/03/06 15:37:25;;;;;;;9.63;5.30;;;;;;;;;;6248313;28;20048;-77
2024/03/06 15:40:27;;;;;;;6.57;4.07;;;;;;;;;;6237477;28;20110;-77
2024/03/06 15:43:30;;;;;;;12.20;5.75;;;;;;;;;;6231509;28;20084;-77
2024/03/06 15:46:33;;;;;;;11.40;4.38;;;;;;;;;;6239975;28;20106;-77
2024/03/06 15:49:35;;;;;;;15.85;7.05;;;;;;;;;;6242865;28;20057;-76
2024/03/06 15:52:39;;;;;;;19.77;7.65;;;;;;;;;;6263349;28;20071;-78
2024/03/06 15:55:42;;;;;;;14.20;7.00;;;;;;;;;;6243311;28;20044;-77
2024/03/06 15:58:44;;;;;;;14.93;8.02;;;;;;;;;;6248679;28;20056;-78
2024/03/06 16:01:46;;;;;;;19.02;8.40;;;;;;;;;;6262056;28;20621;-78
2024/03/06 16:04:48;;;;;;;14.55;8.27;;;;;;;;;;6249003;28;20056;-77
2024/03/06 16:07:53;;;;;;;17.13;8.13;;;;;;;;;;6237850;28;20060;-77
2024/03/06 16:11:06;;;;;;;12.85;6.75;;;;;;;;;;6248894;28;20076;-77
2024/03/06 16:14:11;;;;;;;11.02;5.97;;;;;;;;;;6227623;28;20052;-77
2024/03/06 16:17:13;;;;;;;20.25;7.57;;;;;;;;;;6243147;28;20133;-78
2024/03/06 16:20:16;;;;;;;11.27;6.85;;;;;;;;;;6237023;28;21088;-77
2024/03/06 16:23:18;;;;;;;15.95;7.13;;;;;;;;;;6255481;28;20053;-77
2024/03/06 16:26:20;;;;;;;10.50;5.75;;;;;;;;;;6247802;28;20032;-77
2024/03/06 16:29:23;;;;;;;12.48;7.80;;;;;;;;;;6254052;28;20640;-77
2024/03/06 16:32:25;;;;;;;18.40;10.15;;;;;;;;;;6238947;28;20049;-78
2024/03/06 16:35:27;;;;;;;20.13;11.48;;;;;;;;;;6230414;28;20683;-77
2024/03/06 16:38:31;;;;;;;18.92;10.90;;;;;;;;;;6250840;28;20053;-76
2024/03/06 16:41:35;;;;;;;13.10;8.43;;;;;;;;;;6268759;28;20053;-78
2024/03/06 16:44:42;;;;;;;15.13;10.05;;;;;;;;;;6207563;28;20153;-77
2024/03/06 16:47:44;;;;;;;;;;;;;;;;;;6258302;28;20526;-78
2024/03/06 16:50:47;;;;;;;20.40;13.27;;;;;;;;;;6257395;28;19924;-77
2024/03/06 16:53:49;;;;;;;20.20;12.35;;;;;;;;;;6218584;28;20049;-78
2024/03/06 16:56:52;;;;;;;30.60;19.80;;;;;;;;;;6227605;28;20045;-78
2024/03/06 16:59:54;;;;;;;20.85;14.15;;;;;;;;;;6268788;28;20049;-78
2024/03/06 17:02:58;;;;;;;20.17;9.95;;;;;;;;;;6259893;28;20067;-78
2024/03/06 17:06:00;;;;;;;12.13;7.53;;;;;;;;;;6251264;28;20049;-79
2024/03/06 17:09:05;;;;;;;22.20;12.48;;;;;;;;;;6244532;28;20134;-75
2024/03/06 17:12:07;;;;;;;13.48;8.45;;;;;;;;;;6241599;28;20061;-75
2024/03/06 17:15:10;;;;;;;14.15;7.97;;;;;;;;;;6268557;28;20059;-76
2024/03/06 17:18:13;;;;;;;20.95;9.90;;;;;;;;;;6278407;28;20043;-75
2024/03/06 17:21:16;;;;;;;15.00;9.82;;;;;;;;;;6240668;28;20145;-76
2024/03/06 17:24:21;;;;;;;19.88;12.52;;;;;;;;;;6263148;28;20056;-80
2024/03/06 17:27:23;;;;;;;26.70;17.50;;;;;;;;;;6243385;28;20120;-78
2024/03/06 17:30:27;;;;;;;20.40;14.88;;;;;;;;;;6268277;28;20114;-77
2024/03/06 17:33:29;;;;;;;56.45;33.92;;;;;;;;;;6251632;28;20052;-77
2024/03/06 17:36:33;;;;;;;22.48;16.85;;;;;;;;;;6263696;28;20056;-76
2024/03/06 17:39:39;;;;;;;17.73;12.80;;;;;;;;;;6273417;28;20055;-76
2024/03/06 17:42:44;;;;;;;;;;;;;;;;;;6275675;28;20033;-75
2024/03/06 17:45:46;;;;;;;18.60;9.63;;;;;;;;;;6235567;28;19924;-76
2024/03/06 17:48:49;;;;;;;13.40;7.40;;;;;;;;;;6251484;28;20053;-78
2024/03/06 17:51:58;;;;;;;13.32;7.57;;;;;;;;;;6265883;28;20040;-74
2024/03/06 17:55:00;;;;;;;12.50;6.78;;;;;;;;;;6253144;28;20513;-75
2024/03/06 17:58:03;;;;;;;14.85;8.40;;;;;;;;;;6269832;28;20037;-76
2024/03/06 18:01:07;;;;;;;14.07;8.10;;;;;;;;;;6241210;28;20052;-77
2024/03/06 18:04:10;;;;;;;14.00;6.18;;;;;;;;;;6265908;28;20052;-76